Flight Track Log - Related Links

Times and Time Zones

All times are in EDT time to prevent confusion due to time zone crossing. See the UAL582 flight status page for this flight to view local times or setup timezone preferences in your user account.

Time Position Orientation Groundspeed Altitude Reporting Facility
EDT Latitude Longitude Course Direction KTS MPH feet Rate Location/Type
Sat 10:06:31 PM 41.9167 -87.8667 180° South 224 258 4,600  Level Chicago TRACON
Sat 10:07:00 PM 41.6793 -87.7669 180° South  Level Estimated
Sat 10:07:57 PM 41.8133 -87.8686 181° South 255 293 7,700  Level Chicago Center
Sat 10:08:00 PM 41.5785 -87.7206 176° South  Level Estimated
Sat 10:08:58 PM 41.7375 -87.8703 181° South 271 312 10,800  Level Chicago Center
Sat 10:09:00 PM 41.4902 -87.8004 214° Southwest  Level FlightAware Approximate
Sat 10:09:59 PM 41.6564 -87.8711 180° South 290 334 13,200  Level Chicago Center
Sat 10:10:00 PM 41.3896 -87.7534 187° South  Level Estimated
Sat 10:11:00 PM 41.2890 -87.7065 180° South  Level Estimated
Sat 10:11:00 PM 41.5622 -87.8742 181° South 331 381 15,500  Level Chicago Center
Sat 10:12:01 PM 41.4658 -87.8775 181° South 342 394 18,300 2,213 Climbing Chicago Center
Sat 10:13:02 PM 41.3611 -87.8822 182° South 369 425 20,000 1,574 Climbing Chicago Center
Sat 10:14:03 PM 41.2514 -87.8917 184° South 388 447 21,500 2,459 Climbing Chicago Center
Sat 10:15:04 PM 41.1428 -87.8889 179° South 391 450 25,000 2,311 Climbing Chicago Center
Sat 10:16:05 PM 41.0361 -87.8850 178° South 386 444 26,200 1,377 Climbing Chicago Center
Sat 10:17:06 PM 40.9269 -87.8822 179° South 392 451 27,800 1,377 Climbing Chicago Center
Sat 10:18:07 PM 40.8178 -87.8783 178° South 394 453 29,000 1,180 Climbing Chicago Center
Sat 10:19:08 PM 40.7058 -87.8744 178° South 402 463 30,200 1,377 Climbing Chicago Center
Sat 10:20:09 PM 40.5681 -87.8703 179° South 412 474 31,800 1,328 Climbing Chicago Center
Sat 10:21:10 PM 40.4575 -87.8414 169° South 407 468 32,900 1,279 Climbing Chicago Center
Sat 10:22:11 PM 40.3494 -87.8103 168° South 400 460 34,400 1,623 Climbing Chicago Center
Sat 10:23:12 PM 40.2450 -87.7806 168° South 390 449 36,200 1,230 Climbing Chicago Center
Sat 10:24:13 PM 40.1342 -87.7514 169° South 378 435 36,900 414 Climbing Chicago Center
Sat 10:25:08 PM 40.0461 -87.7275 168° South 389 448 37,000 362 Climbing Indianapolis Center
Sat 10:26:09 PM 39.9403 -87.6942 166° South 394 453 37,600 492 Climbing Indianapolis Center
Sat 10:27:10 PM 39.8539 -87.6147 145° Southeast 383 441 38,000 197 Climbing Indianapolis Center
Sat 10:28:11 PM 39.7703 -87.5367 144° Southeast 375 432 38,000  Level Indianapolis Center
Sat 10:29:11 PM 39.6714 -87.4408 143° Southeast 372 428 38,000  Level Indianapolis Center
Sat 10:30:12 PM 39.5889 -87.3608 143° Southeast 374 430 38,000 246 Level Indianapolis Center
Sat 10:31:13 PM 39.4978 -87.2950 151° Southeast 379 436 38,500 492 Climbing Indianapolis Center
Sat 10:32:14 PM 39.3961 -87.2572 164° South 380 437 39,000 248 Climbing Indianapolis Center
Sat 10:33:14 PM 39.2953 -87.2222 165° South 378 435 39,000  Level Indianapolis Center
Sat 10:34:15 PM 39.1919 -87.1858 165° South 385 443 39,000  Level Indianapolis Center
Sat 10:35:16 PM 39.0808 -87.1472 165° South 382 440 39,000  Level Indianapolis Center
Sat 10:36:17 PM 38.9775 -87.1111 165° South 382 440 39,000  Level Indianapolis Center
Sat 10:37:18 PM 38.8764 -87.0761 165° South 377 434 39,000  Level Indianapolis Center
Sat 10:38:18 PM 38.7742 -87.0406 165° South 378 435 39,000  Level Indianapolis Center
Sat 10:39:19 PM 38.6731 -87.0053 165° South 375 432 39,000  Level Indianapolis Center
Sat 10:40:20 PM 38.5722 -86.9692 164° South 373 429 39,000  Level Indianapolis Center
Sat 10:41:21 PM 38.4697 -86.9342 165° South 376 433 39,000  Level Indianapolis Center
Sat 10:42:22 PM 38.3667 -86.8969 164° South 376 433 39,000  Level Indianapolis Center
Sat 10:43:23 PM 38.2619 -86.8617 165° South 379 436 39,000  Level Indianapolis Center
Sat 10:44:23 PM 38.1606 -86.8292 166° South 372 428 39,000  Level Indianapolis Center
Sat 10:45:24 PM 38.0597 -86.7947 165° South 370 426 39,000  Level Indianapolis Center
Sat 10:46:25 PM 37.9589 -86.7617 166° South 370 426 39,000  Level Indianapolis Center
Sat 10:47:26 PM 37.8594 -86.7275 165° South 367 422 39,000  Level Indianapolis Center
Sat 10:48:27 PM 37.7603 -86.6958 166° South 364 419 39,000  Level Indianapolis Center
Sat 10:49:28 PM 37.6625 -86.6619 165° South 363 418 39,000  Level Indianapolis Center
Sat 10:50:28 PM 37.5642 -86.6289 165° South 363 418 39,000  Level Indianapolis Center
Sat 10:51:29 PM 37.4692 -86.5981 166° South 362 417 39,000  Level Indianapolis Center
Sat 10:52:30 PM 37.3719 -86.5656 165° South 358 412 39,000  Level Indianapolis Center
Sat 10:53:31 PM 37.2747 -86.5333 165° South 357 411 39,000  Level Indianapolis Center
Sat 10:54:32 PM 37.1767 -86.5011 165° South 359 413 39,000  Level Indianapolis Center
Sat 10:55:33 PM 37.0789 -86.4678 165° South 361 415 39,000  Level Indianapolis Center
Sat 10:56:33 PM 36.9794 -86.4350 165° South 366 421 39,000  Level Indianapolis Center
Sat 10:57:34 PM 36.8803 -86.4025 165° South 364 419 39,000  Level Indianapolis Center
Sat 10:58:35 PM 36.7819 -86.3703 165° South 362 417 39,000  Level Indianapolis Center
Sat 10:59:36 PM 36.6831 -86.3372 165° South 363 418 39,000  Level Indianapolis Center
Sat 11:00:37 PM 36.5831 -86.3044 165° South 365 420 39,000  Level Indianapolis Center
Sat 11:01:38 PM 36.4836 -86.2731 166° South 364 419 39,000  Level Indianapolis Center
Sat 11:02:39 PM 36.3839 -86.2403 165° South 364 419 39,000  Level Indianapolis Center
Sat 11:04:02 PM 36.2450 -86.1958 166° South 363 418 39,000  Level Memphis Center
Sat 11:05:02 PM 36.1461 -86.1650 166° South 363 418 39,000  Level Memphis Center
Sat 11:06:02 PM 36.0492 -86.1339 165° South 363 418 39,000  Level Memphis Center
Sat 11:07:02 PM 35.9519 -86.1006 164° South 363 418 39,000  Level Memphis Center
Sat 11:08:02 PM 35.8383 -86.0681 167° South 363 418 39,000  Level Memphis Center
Sat 11:09:55 PM 35.6567 -86.0119 166° South 381 438 39,000  Level Atlanta Center
Sat 11:10:55 PM 35.5569 -85.9789 165° South 371 427 39,000  Level Atlanta Center
Sat 11:11:55 PM 35.4553 -85.9458 165° South 376 433 39,000  Level Atlanta Center
Sat 11:12:55 PM 35.3514 -85.9128 165° South 383 441 39,000  Level Atlanta Center
Sat 11:13:55 PM 35.2497 -85.8800 165° South 383 441 39,000  Level Atlanta Center
Sat 11:14:55 PM 35.1500 -85.8525 167° South 367 422 39,000  Level Atlanta Center
Sat 11:15:55 PM 35.0503 -85.8197 165° South 367 422 39,000  Level Atlanta Center
Sat 11:16:55 PM 34.9506 -85.7872 165° South 374 430 39,000  Level Atlanta Center
Sat 11:17:55 PM 34.8467 -85.7547 166° South 374 430 39,000  Level Atlanta Center
Sat 11:18:55 PM 34.7447 -85.7275 168° South 374 430 39,000  Level Atlanta Center
Sat 11:19:55 PM 34.6408 -85.6950 166° South 374 430 39,000  Level Atlanta Center
Sat 11:20:55 PM 34.5369 -85.6628 166° South 374 430 39,000  Level Atlanta Center
Sat 11:21:55 PM 34.4353 -85.6306 165° South 374 430 39,000  Level Atlanta Center
Sat 11:22:55 PM 34.3333 -85.5958 164° South 374 430 39,000  Level Atlanta Center
Sat 11:23:55 PM 34.2314 -85.5689 168° South 374 430 39,000  Level Atlanta Center
Sat 11:24:55 PM 34.1294 -85.5344 164° South 374 430 39,000  Level Atlanta Center
Sat 11:25:55 PM 34.0256 -85.5050 167° South 374 430 39,000  Level Atlanta Center
Sat 11:26:55 PM 33.9236 -85.4733 166° South 374 430 39,000  Level Atlanta Center
Sat 11:27:55 PM 33.8197 -85.4414 166° South 374 430 39,000  Level Atlanta Center
Sat 11:28:55 PM 33.7303 -85.4150 166° South 374 430 39,000  Level Atlanta Center
Sat 11:29:55 PM 33.6261 -85.3836 166° South 374 430 39,000  Level Atlanta Center
Sat 11:30:55 PM 33.5200 -85.3519 166° South 380 437 39,000  Level Atlanta Center
Sat 11:31:55 PM 33.4203 -85.3231 166° South 380 437 39,000  Level Atlanta Center
Sat 11:32:55 PM 33.3142 -85.2917 166° South 380 437 39,000  Level Atlanta Center
Sat 11:33:55 PM 33.2100 -85.2578 165° South 380 437 39,000  Level Atlanta Center
Sat 11:34:55 PM 33.1081 -85.2167 161° South 380 437 39,000  Level Atlanta Center
Sat 11:35:55 PM 33.0106 -85.1683 157° South 386 444 39,000  Level Atlanta Center
Sat 11:36:55 PM 32.9044 -85.1350 165° South 386 444 39,000  Level Atlanta Center
Sat 11:37:55 PM 32.7919 -85.0864 160° South 386 444 39,000  Level Atlanta Center
Sat 11:38:55 PM 32.7006 -85.0336 154° Southeast 391 450 39,000  Level Atlanta Center
Sat 11:39:55 PM 32.6136 -84.9561 143° Southeast 377 434 39,000  Level Atlanta Center
Sat 11:41:38 PM 32.4564 -84.8303 146° Southeast 398 458 39,000  Level Jacksonville Center
Sat 11:42:38 PM 32.3636 -84.7544 145° Southeast 393 452 39,000  Level Jacksonville Center
Sat 11:43:38 PM 32.2769 -84.6814 145° Southeast 393 452 39,000  Level Jacksonville Center
Sat 11:44:38 PM 32.1861 -84.6083 146° Southeast 393 452 39,000  Level Jacksonville Center
Sat 11:45:38 PM 32.0953 -84.5381 147° Southeast 393 452 39,000  Level Jacksonville Center
Sat 11:46:38 PM 32.0022 -84.4728 149° Southeast 393 452 39,000  Level Jacksonville Center
Sat 11:47:38 PM 31.9067 -84.4319 160° South 393 452 39,000  Level Jacksonville Center
Sat 11:48:38 PM 31.8006 -84.3886 161° South 398 458 39,000  Level Jacksonville Center
Sat 11:49:38 PM 31.6969 -84.3431 159° South 403 464 39,000  Level Jacksonville Center
Sat 11:50:38 PM 31.5931 -84.3000 161° South 403 464 39,000  Level Jacksonville Center
Sat 11:51:38 PM 31.4869 -84.2569 161° South 403 464 39,000  Level Jacksonville Center
Sat 11:52:38 PM 31.3850 -84.2117 159° South 403 464 39,000  Level Jacksonville Center
Sat 11:53:38 PM 31.2811 -84.1689 161° South 403 464 39,000  Level Jacksonville Center
Sat 11:54:38 PM 31.1750 -84.1261 161° South 403 464 39,000  Level Jacksonville Center
Sat 11:55:38 PM 31.0711 -84.0811 160° South 403 464 39,000  Level Jacksonville Center
Sat 11:56:38 PM 30.9692 -84.0386 160° South 403 464 39,000  Level Jacksonville Center
Sat 11:57:38 PM 30.8653 -83.9939 160° South 403 464 39,000  Level Jacksonville Center
Sat 11:58:38 PM 30.7611 -83.9514 161° South 403 464 39,000  Level Jacksonville Center
Sat 11:59:38 PM 30.6531 -83.9044 160° South 403 464 39,000  Level Jacksonville Center
Sun 12:00:38 AM 30.5364 -83.8572 161° South 403 464 39,000  Level Jacksonville Center
Sun 12:01:38 AM 30.4428 -83.8203 161° South 397 457 39,000 -50 Level Jacksonville Center
Sun 12:02:38 AM 30.3303 -83.7758 161° South 410 472 38,900 -50 Descending Jacksonville Center
Sun 12:03:38 AM 30.2219 -83.7292 160° South 416 479 38,900  Level Jacksonville Center
Sun 12:04:38 AM 30.1117 -83.6850 161° South 416 479 38,900  Level Jacksonville Center
Sun 12:05:38 AM 30.0056 -83.6433 161° South 416 479 38,900 50 Level Jacksonville Center
Sun 12:06:38 AM 29.8931 -83.5944 159° South 421 484 39,000 -150 Climbing Jacksonville Center
Sun 12:07:38 AM 29.7825 -83.5506 161° South 421 484 38,600 -650 Descending Jacksonville Center
Sun 12:08:38 AM 29.6742 -83.5069 161° South 421 484 37,700 -1,050 Descending Jacksonville Center
Sun 12:09:38 AM 29.5492 -83.4561 161° South 421 484 36,500 -1,050 Descending Jacksonville Center
Sun 12:10:38 AM 29.4386 -83.4100 160° South 421 484 35,600 -1,700 Descending Jacksonville Center
Sun 12:11:38 AM 29.3219 -83.3642 161° South 432 497 33,100 -2,950 Descending Jacksonville Center
Sun 12:12:38 AM 29.2053 -83.3183 161° South 432 497 29,700 -3,050 Descending Jacksonville Center
Sun 12:13:38 AM 29.0886 -83.2703 160° South 437 503 27,000 -2,550 Descending Jacksonville Center
Sun 12:14:38 AM 28.9717 -83.2225 160° South 447 514 24,600 -2,400 Descending Jacksonville Center
Sun 12:15:38 AM 28.8633 -83.1769 160° South 442 509 22,200 -2,802 Descending Jacksonville Center
Sun 12:17:25 AM 28.6667 -83.1000 161° South 407 468 16,800 -2,946 Descending Tampa TRACON
Sun 12:18:25 AM 28.5667 -83.0667 164° South 375 432 14,000 -2,250 Descending Tampa TRACON
Sun 12:19:25 AM 28.5000 -83.0000 139° Southeast 320 368 12,300 -1,600 Descending Tampa TRACON
Sun 12:20:25 AM 28.4500 -82.9333 130° Southeast 299 344 10,800 -1,550 Descending Tampa TRACON
Sun 12:21:25 AM 28.4000 -82.8667 130° Southeast 288 331 9,200 -1,550 Descending Tampa TRACON
Sun 12:22:25 AM 28.3500 -82.8000 130° Southeast 279 321 7,700 -1,400 Descending Tampa TRACON
Sun 12:23:25 AM 28.3000 -82.7333 130° Southeast 268 308 6,400 -1,000 Descending Tampa TRACON
Sun 12:24:25 AM 28.2500 -82.6667 130° Southeast 242 278 5,700 -700 Descending Tampa TRACON
Sun 12:25:25 AM 28.2167 -82.6167 127° Southeast 230 265 5,000 -750 Descending Tampa TRACON
Sun 12:26:25 AM 28.1667 -82.5667 139° Southeast 204 235 4,200 -700 Descending Tampa TRACON
Sun 12:27:25 AM 28.1333 -82.5333 139° Southeast 173 199 3,600 -750 Descending Tampa TRACON
Sun 12:28:25 AM 28.1000 -82.5333 180° South 157 181 2,700 -1,050 Descending Tampa TRACON
Sun 12:29:25 AM 28.0500 -82.5333 180° South 141 162 1,500 -1,000 Descending Tampa TRACON
Sun 12:30:25 AM 28.0167 -82.5333 180° South 127 146 700 -800 Descending Tampa TRACON
Sun 12:32:00 AM 27.9755 -82.5332 161° South  Level Estimated
Sun 12:39:00 AM 27.9755 -82.5332 161° South  Level Estimated
Sun 12:40:00 AM 27.9755 -82.5332 161° South  Level Estimated

Login

Don't have an account? Register now (free) for customized features, flight alerts, and more!